createdAt,value
2023-01-03T00:01:05.308Z,37.56
2023-01-03T00:03:31.746Z,37.58
2023-01-03T00:05:58.111Z,37.61
2023-01-03T00:08:24.536Z,37.59
2023-01-03T00:10:50.890Z,37.62
2023-01-03T00:13:17.291Z,37.65
2023-01-03T00:15:43.720Z,37.65
2023-01-03T00:18:10.142Z,37.66
2023-01-03T00:20:36.630Z,37.76
2023-01-03T00:25:41.856Z,37.78
2023-01-03T00:28:08.240Z,37.81
2023-01-03T00:30:34.661Z,37.85
2023-01-03T00:33:01.030Z,37.81
2023-01-03T00:35:27.387Z,37.86
2023-01-03T00:40:39.077Z,37.86
2023-01-03T00:43:05.427Z,37.94
2023-01-03T00:45:35.353Z,37.94
2023-01-03T00:47:58.235Z,37.90
2023-01-03T00:50:24.771Z,37.90
2023-01-03T00:52:51.123Z,37.92
2023-01-03T00:55:17.556Z,37.92
2023-01-03T00:57:43.951Z,37.94
2023-01-03T01:00:10.361Z,37.93
2023-01-03T01:02:37.041Z,37.99
2023-01-03T01:05:03.166Z,37.96
2023-01-03T01:07:29.515Z,37.92
2023-01-03T01:09:55.915Z,37.98
2023-01-03T01:12:22.278Z,37.98
2023-01-03T01:14:48.668Z,37.98
2023-01-03T01:17:20.707Z,38.02
2023-01-03T01:19:41.466Z,38.02
2023-01-03T01:22:07.852Z,38.06
2023-01-03T01:24:34.238Z,38.08
2023-01-03T01:27:00.641Z,38.09
2023-01-03T01:29:27.079Z,38.14
2023-01-03T01:31:53.434Z,38.13
2023-01-03T01:34:19.979Z,38.20
2023-01-03T01:36:46.345Z,38.21
2023-01-03T01:39:12.810Z,38.21
2023-01-03T01:41:39.179Z,38.18
2023-01-03T01:44:05.558Z,38.16
2023-01-03T01:46:31.988Z,38.19
2023-01-03T01:48:58.362Z,38.21
2023-01-03T01:51:24.711Z,38.16
2023-01-03T01:53:51.129Z,38.16
2023-01-03T01:56:17.483Z,38.09
2023-01-03T01:58:43.899Z,38.08
2023-01-03T02:01:11.486Z,38.06
2023-01-03T02:03:37.833Z,38.08
2023-01-03T02:06:04.148Z,38.16
2023-01-03T02:08:30.545Z,38.14
2023-01-03T02:10:56.924Z,38.18
2023-01-03T02:13:23.309Z,38.18
2023-01-03T02:15:49.763Z,38.18
2023-01-03T02:18:16.120Z,38.27
2023-01-03T02:20:42.470Z,38.33
2023-01-03T02:23:08.876Z,38.35
2023-01-03T02:25:35.248Z,38.41
2023-01-03T02:28:01.642Z,38.30
2023-01-03T02:30:27.990Z,38.35
2023-01-03T02:32:54.400Z,38.48
2023-01-03T02:35:20.800Z,38.47
2023-01-03T02:37:47.188Z,38.52
2023-01-03T02:40:13.573Z,38.53
2023-01-03T02:42:39.968Z,38.54
2023-01-03T02:45:06.334Z,38.55
2023-01-03T02:47:32.737Z,38.57
2023-01-03T02:49:59.118Z,38.57
2023-01-03T02:52:25.518Z,38.64
2023-01-03T02:54:51.864Z,38.64
2023-01-03T02:57:18.270Z,38.63
2023-01-03T02:59:44.641Z,38.70
2023-01-03T03:02:11.198Z,38.73
2023-01-03T03:04:37.417Z,38.77
2023-01-03T03:07:03.849Z,38.73
2023-01-03T03:09:30.237Z,38.71
2023-01-03T03:11:56.673Z,38.69
2023-01-03T03:14:23.024Z,38.62
2023-01-03T03:16:49.435Z,38.53
2023-01-03T03:19:15.792Z,38.54
2023-01-03T03:21:42.205Z,38.53
2023-01-03T03:24:08.603Z,38.40
2023-01-03T03:26:34.979Z,38.38
2023-01-03T03:29:01.406Z,38.26
2023-01-03T03:31:27.856Z,38.23
2023-01-03T03:33:54.218Z,38.09
2023-01-03T03:36:20.629Z,38.07
2023-01-03T03:38:46.992Z,38.00
2023-01-03T03:41:13.404Z,37.91
2023-01-03T03:43:39.809Z,37.87
2023-01-03T03:46:06.222Z,37.77
2023-01-03T03:48:32.577Z,37.71
2023-01-03T03:50:58.992Z,37.59
2023-01-03T03:53:25.352Z,37.53
2023-01-03T03:55:51.760Z,37.47
2023-01-03T03:58:18.121Z,37.44
2023-01-03T04:00:44.555Z,37.42
2023-01-03T04:03:10.961Z,37.32
2023-01-03T04:05:37.337Z,37.26
2023-01-03T04:08:03.718Z,37.21
2023-01-03T04:10:35.595Z,37.07
2023-01-03T04:12:56.510Z,37.06
2023-01-03T04:15:22.953Z,37.04
2023-01-03T04:17:50.239Z,36.95
2023-01-03T04:20:15.733Z,36.92
2023-01-03T04:22:42.066Z,36.88
2023-01-03T04:25:08.486Z,36.87
2023-01-03T04:27:34.834Z,36.73
2023-01-03T04:30:01.350Z,36.75
2023-01-03T04:32:27.684Z,36.73
2023-01-03T04:34:54.086Z,36.65
2023-01-03T04:37:20.455Z,36.63
2023-01-03T04:39:46.925Z,36.57
2023-01-03T04:42:13.308Z,36.48
2023-01-03T04:44:39.697Z,36.42
2023-01-03T04:47:08.481Z,36.32
2023-01-03T04:49:37.709Z,36.26
2023-01-03T04:52:04.076Z,36.23
2023-01-03T04:54:30.481Z,36.10
2023-01-03T04:56:56.850Z,36.13
2023-01-03T04:59:23.256Z,35.97
2023-01-03T05:01:49.722Z,35.93
2023-01-03T05:04:16.022Z,36.33
2023-01-03T05:06:42.354Z,36.21
2023-01-03T05:09:08.759Z,35.99
2023-01-03T05:11:35.163Z,35.64
2023-01-03T05:14:01.575Z,35.33
2023-01-03T05:16:27.941Z,35.13
2023-01-03T05:18:54.342Z,35.01
2023-01-03T05:21:20.649Z,34.95
2023-01-03T05:23:47.064Z,34.86
2023-01-03T05:26:13.457Z,34.83
2023-01-03T05:28:39.867Z,34.80
2023-01-03T05:31:06.245Z,34.76
2023-01-03T05:33:32.624Z,34.64
2023-01-03T05:35:58.978Z,34.49
2023-01-03T05:38:25.376Z,34.52
2023-01-03T05:40:51.743Z,34.38
2023-01-03T05:43:18.132Z,34.34
2023-01-03T05:45:44.558Z,34.34
2023-01-03T05:48:10.886Z,34.34
2023-01-03T05:50:37.238Z,34.17
2023-01-03T05:53:03.647Z,33.88
2023-01-03T05:55:29.986Z,33.68
2023-01-03T05:57:56.429Z,33.88
2023-01-03T06:00:22.772Z,33.81
2023-01-03T06:02:49.222Z,33.69
2023-01-03T06:05:15.527Z,33.59
2023-01-03T06:07:41.926Z,33.49
2023-01-03T06:10:09.505Z,33.33
2023-01-03T06:12:34.674Z,33.38
2023-01-03T06:15:01.039Z,33.16
2023-01-03T06:17:27.472Z,33.15
2023-01-03T06:19:53.798Z,32.96
2023-01-03T06:22:20.184Z,32.98
2023-01-03T06:24:46.554Z,33.12
2023-01-03T06:27:12.953Z,33.30
2023-01-03T06:29:39.310Z,33.48
2023-01-03T06:32:09.509Z,33.65
2023-01-03T06:34:32.050Z,33.73
2023-01-03T06:36:58.471Z,34.07
2023-01-03T06:39:24.797Z,34.16
2023-01-03T06:41:51.189Z,34.35
2023-01-03T06:44:17.563Z,34.48
2023-01-03T06:46:43.991Z,34.35
2023-01-03T06:49:10.285Z,34.20
2023-01-03T06:51:36.696Z,34.12
2023-01-03T06:54:03.049Z,34.03
2023-01-03T06:56:29.432Z,33.89
2023-01-03T06:58:55.791Z,33.78
2023-01-03T07:01:22.352Z,33.62
2023-01-03T07:03:48.566Z,33.92
2023-01-03T07:06:15.041Z,33.67
2023-01-03T07:08:47.667Z,33.68
2023-01-03T07:11:07.780Z,33.33
2023-01-03T07:13:34.116Z,33.44
2023-01-03T07:16:00.544Z,33.31
2023-01-03T07:18:26.870Z,33.38
2023-01-03T07:20:53.264Z,33.42
2023-01-03T07:23:19.607Z,33.10
2023-01-03T07:25:46.005Z,33.24
2023-01-03T07:28:12.398Z,33.14
2023-01-03T07:30:38.791Z,33.08
2023-01-03T07:33:05.135Z,33.25
2023-01-03T07:35:31.534Z,33.55
2023-01-03T07:37:57.939Z,33.61
2023-01-03T07:40:24.353Z,33.48
2023-01-03T07:42:50.707Z,33.80
2023-01-03T07:45:17.108Z,33.94
2023-01-03T07:47:43.531Z,33.91
2023-01-03T07:50:09.964Z,33.97
2023-01-03T07:52:36.305Z,33.86
2023-01-03T07:55:02.706Z,33.45
2023-01-03T07:57:29.067Z,33.56
2023-01-03T07:59:55.471Z,33.47
2023-01-03T08:02:21.948Z,33.67
2023-01-03T08:04:48.277Z,33.67
2023-01-03T08:07:14.619Z,33.60
2023-01-03T08:09:41.052Z,33.87
2023-01-03T08:12:07.389Z,34.01
2023-01-03T08:14:33.800Z,33.92
2023-01-03T08:17:00.160Z,33.92
2023-01-03T08:19:26.605Z,33.78
2023-01-03T08:21:52.967Z,34.75
2023-01-03T08:24:19.363Z,33.76
2023-01-03T08:26:45.727Z,33.76
2023-01-03T08:29:12.133Z,33.84
2023-01-03T08:31:38.523Z,34.30
2023-01-03T08:34:10.288Z,34.30
2023-01-03T08:36:31.254Z,34.04
2023-01-03T08:38:57.635Z,34.39
2023-01-03T08:41:23.990Z,34.43
2023-01-03T08:43:50.389Z,34.43
2023-01-03T08:46:16.760Z,34.11
2023-01-03T08:48:43.180Z,34.13
2023-01-03T08:51:09.527Z,33.95
2023-01-03T08:53:36.027Z,33.96
2023-01-03T08:56:02.377Z,34.29
2023-01-03T08:58:28.777Z,34.06
2023-01-03T09:00:55.123Z,34.31
2023-01-03T09:03:21.591Z,33.95
2023-01-03T09:05:47.858Z,34.13
2023-01-03T09:08:14.256Z,34.13
2023-01-03T09:10:47.159Z,34.24
2023-01-03T09:13:07.010Z,34.51
2023-01-03T09:15:33.376Z,34.56
2023-01-03T09:17:59.775Z,34.45
2023-01-03T09:20:26.158Z,34.55
2023-01-03T09:22:52.606Z,34.62
2023-01-03T09:25:19.015Z,34.62
2023-01-03T09:27:45.473Z,34.49
2023-01-03T09:30:11.922Z,34.49
2023-01-03T09:32:38.281Z,34.92
2023-01-03T09:35:04.701Z,34.66
2023-01-03T09:37:31.074Z,34.48
2023-01-03T09:39:57.467Z,34.48
2023-01-03T09:42:23.836Z,34.55
2023-01-03T09:44:50.213Z,34.55
2023-01-03T09:47:16.680Z,34.20
2023-01-03T09:50:04.673Z,34.43
2023-01-03T09:52:09.319Z,34.83
2023-01-03T09:54:35.707Z,35.14
2023-01-03T09:57:02.066Z,34.97
2023-01-03T09:59:28.452Z,34.88
2023-01-03T10:01:54.996Z,34.75
2023-01-03T10:04:21.187Z,34.90
2023-01-03T10:06:47.551Z,34.69
2023-01-03T10:09:13.969Z,34.70
2023-01-03T10:11:40.303Z,34.95
2023-01-03T10:14:06.709Z,34.97
2023-01-03T10:16:33.127Z,34.76
2023-01-03T10:18:59.477Z,34.48
2023-01-03T10:21:25.812Z,34.58
2023-01-03T10:23:52.240Z,34.58
2023-01-03T10:26:18.595Z,34.54
2023-01-03T10:28:45.076Z,34.90
2023-01-03T10:31:11.361Z,34.90
2023-01-03T10:33:37.765Z,34.83
2023-01-03T10:36:04.161Z,34.75
2023-01-03T10:38:30.543Z,34.73
2023-01-03T10:40:56.906Z,34.69
2023-01-03T10:43:23.312Z,34.63
2023-01-03T10:45:49.970Z,34.61
2023-01-03T10:48:16.037Z,34.61
2023-01-03T10:50:42.421Z,34.91
2023-01-03T10:53:08.818Z,34.92
2023-01-03T10:55:35.307Z,34.95
2023-01-03T10:58:01.680Z,34.88
2023-01-03T11:00:28.027Z,34.88
2023-01-03T11:02:54.517Z,34.68
2023-01-03T11:05:20.754Z,34.86
2023-01-03T11:07:49.593Z,34.69
2023-01-03T11:10:13.611Z,34.64
2023-01-03T11:12:40.024Z,34.67
2023-01-03T11:15:06.341Z,34.70
2023-01-03T11:17:32.729Z,34.86
2023-01-03T11:19:59.101Z,34.94
2023-01-03T11:22:25.515Z,34.94
2023-01-03T11:24:51.875Z,34.91
2023-01-03T11:27:18.227Z,34.81
2023-01-03T11:29:44.578Z,34.60
2023-01-03T11:32:11.040Z,34.57
2023-01-03T11:35:11.532Z,34.68
2023-01-03T11:37:03.746Z,34.56
2023-01-03T11:39:30.143Z,34.56
2023-01-03T11:41:56.530Z,34.65
2023-01-03T11:44:22.909Z,34.53
2023-01-03T11:46:49.407Z,34.45
2023-01-03T11:49:15.700Z,34.50
2023-01-03T11:51:42.110Z,34.55
2023-01-03T11:54:08.443Z,34.42
2023-01-03T11:56:34.864Z,34.56
2023-01-03T11:59:01.296Z,34.64
2023-01-03T12:01:27.756Z,34.55
2023-01-03T12:03:54.147Z,34.51
2023-01-03T12:06:25.029Z,34.36
2023-01-03T12:08:46.892Z,34.19
2023-01-03T12:11:13.291Z,34.41
2023-01-03T12:13:39.651Z,34.64
2023-01-03T12:16:06.120Z,34.86
2023-01-03T12:18:32.435Z,34.71
2023-01-03T12:20:58.818Z,34.75
2023-01-03T12:23:25.193Z,34.66
2023-01-03T12:25:51.593Z,34.60
2023-01-03T12:28:17.934Z,34.68
2023-01-03T12:30:44.379Z,34.52
2023-01-03T12:33:10.680Z,34.46
2023-01-03T12:35:37.081Z,34.43
2023-01-03T12:38:03.463Z,34.43
2023-01-03T12:40:29.877Z,34.35
2023-01-03T12:42:56.201Z,34.24
2023-01-03T12:45:22.593Z,34.22
2023-01-03T12:47:48.953Z,34.13
2023-01-03T12:50:15.351Z,34.42
2023-01-03T12:52:41.696Z,34.24
2023-01-03T12:55:08.093Z,34.28
2023-01-03T12:57:34.422Z,34.41
2023-01-03T13:00:00.830Z,34.38
2023-01-03T13:02:27.363Z,34.28
2023-01-03T13:04:53.640Z,34.32
2023-01-03T13:07:19.994Z,34.22
2023-01-03T13:09:46.357Z,34.11
2023-01-03T13:12:12.711Z,34.20
2023-01-03T13:14:39.122Z,34.23
2023-01-03T13:17:05.460Z,34.35
2023-01-03T13:19:31.855Z,34.47
2023-01-03T13:21:58.206Z,34.48
2023-01-03T13:24:24.590Z,34.55
2023-01-03T13:26:51.813Z,34.49
2023-01-03T13:29:17.322Z,34.37
2023-01-03T13:31:43.725Z,34.30
2023-01-03T13:34:10.063Z,34.33
2023-01-03T13:36:36.401Z,34.29
2023-01-03T13:39:02.801Z,34.39
2023-01-03T13:41:29.160Z,34.36
2023-01-03T13:43:55.809Z,34.04
2023-01-03T13:46:22.064Z,34.02
2023-01-03T13:48:48.303Z,33.92
2023-01-03T13:51:14.657Z,33.88
2023-01-03T13:53:41.030Z,34.08
2023-01-03T13:56:07.378Z,34.05
2023-01-03T13:58:33.791Z,34.10
2023-01-03T14:01:05.493Z,33.58
2023-01-03T14:03:26.699Z,33.62
2023-01-03T14:05:52.917Z,33.64
2023-01-03T14:08:19.317Z,33.76
2023-01-03T14:10:45.660Z,33.55
2023-01-03T14:13:12.059Z,33.71
2023-01-03T14:15:38.613Z,33.84
2023-01-03T14:18:05.004Z,33.95
2023-01-03T14:20:31.389Z,33.62
2023-01-03T14:22:57.763Z,33.73
2023-01-03T14:25:24.119Z,33.59
2023-01-03T14:27:50.541Z,33.74
2023-01-03T14:30:18.834Z,33.66
2023-01-03T14:32:43.312Z,33.65
2023-01-03T14:35:09.646Z,33.71
2023-01-03T14:37:36.068Z,33.87
2023-01-03T14:40:02.415Z,33.79
2023-01-03T14:42:28.807Z,33.77
2023-01-03T14:44:55.164Z,33.78
2023-01-03T14:47:21.545Z,33.83
2023-01-03T14:49:47.896Z,33.92
2023-01-03T14:52:14.291Z,33.66
2023-01-03T14:54:40.631Z,33.69
2023-01-03T14:57:07.025Z,33.63
2023-01-03T14:59:33.424Z,33.66
2023-01-03T15:02:00.072Z,33.63
2023-01-03T15:04:26.160Z,33.73
2023-01-03T15:06:57.039Z,33.83
2023-01-03T15:09:18.930Z,33.79
2023-01-03T15:11:45.319Z,33.64
2023-01-03T15:14:11.684Z,33.67
2023-01-03T15:16:38.133Z,33.62
2023-01-03T15:19:04.415Z,33.74
2023-01-03T15:21:30.816Z,33.63
2023-01-03T15:23:57.180Z,33.68
2023-01-03T15:26:23.598Z,33.68
2023-01-03T15:28:49.954Z,33.70
2023-01-03T15:31:17.665Z,33.70
2023-01-03T15:33:42.703Z,33.74
2023-01-03T15:36:13.411Z,33.74
2023-01-03T15:38:35.514Z,33.77
2023-01-03T15:41:01.863Z,33.74
2023-01-03T15:43:28.189Z,33.75
2023-01-03T15:45:54.632Z,33.83
2023-01-03T15:48:20.934Z,33.83
2023-01-03T15:50:47.337Z,33.86
2023-01-03T15:53:13.679Z,33.93
2023-01-03T15:55:40.073Z,33.91
2023-01-03T15:58:06.424Z,33.95
2023-01-03T16:00:32.861Z,33.82
2023-01-03T16:02:59.324Z,33.75
2023-01-03T16:05:25.583Z,33.83
2023-01-03T16:07:51.947Z,33.89
2023-01-03T16:10:18.331Z,33.90
2023-01-03T16:12:44.667Z,33.94
2023-01-03T16:15:11.061Z,34.06
2023-01-03T16:17:37.408Z,33.84
2023-01-03T16:20:03.847Z,33.91
2023-01-03T16:22:35.416Z,33.96
2023-01-03T16:24:58.757Z,34.18
2023-01-03T16:27:25.106Z,33.98
2023-01-03T16:29:51.519Z,33.99
2023-01-03T16:32:17.972Z,33.97
2023-01-03T16:34:44.339Z,33.92
2023-01-03T16:37:10.734Z,33.96
2023-01-03T16:39:41.052Z,34.08
2023-01-03T16:42:03.503Z,33.87
2023-01-03T16:44:29.913Z,33.92
2023-01-03T16:46:56.261Z,34.00
2023-01-03T16:49:22.716Z,33.94
2023-01-03T16:51:53.856Z,33.89
2023-01-03T16:54:15.433Z,33.95
2023-01-03T16:56:41.793Z,33.91
2023-01-03T16:59:08.197Z,33.71
2023-01-03T17:01:34.770Z,33.81
2023-01-03T17:04:01.024Z,33.88
2023-01-03T17:06:31.878Z,33.84
2023-01-03T17:08:53.736Z,33.73
2023-01-03T17:11:20.073Z,33.82
2023-01-03T17:13:46.456Z,33.69
2023-01-03T17:16:12.869Z,33.62
2023-01-03T17:18:39.193Z,33.68
2023-01-03T17:21:05.545Z,33.71
2023-01-03T17:23:31.920Z,33.70
2023-01-03T17:25:58.262Z,33.62
2023-01-03T17:28:24.674Z,33.69
2023-01-03T17:30:51.122Z,33.24
2023-01-03T17:33:17.441Z,33.24
2023-01-03T17:35:43.785Z,33.67
2023-01-03T17:38:26.699Z,33.47
2023-01-03T17:40:36.527Z,33.47
2023-01-03T17:43:02.961Z,33.62
2023-01-03T17:45:29.264Z,33.62
2023-01-03T17:47:55.661Z,33.78
2023-01-03T17:50:22.014Z,33.86
2023-01-03T17:52:53.735Z,34.02
2023-01-03T17:55:14.747Z,34.01
2023-01-03T17:57:41.129Z,34.12
2023-01-03T18:00:07.534Z,34.25
2023-01-03T18:02:34.040Z,34.23
2023-01-03T18:05:21.271Z,34.19
2023-01-03T18:07:26.687Z,34.29
2023-01-03T18:09:53.053Z,34.28
2023-01-03T18:12:19.447Z,34.07
2023-01-03T18:14:45.785Z,34.30
2023-01-03T18:17:12.221Z,34.27
2023-01-03T18:19:38.556Z,34.28
2023-01-03T18:22:04.989Z,34.27
2023-01-03T18:24:31.337Z,34.17
2023-01-03T18:26:57.731Z,34.06
2023-01-03T18:29:24.101Z,34.04
2023-01-03T18:31:50.489Z,34.11
2023-01-03T18:34:16.813Z,34.16
2023-01-03T18:36:43.251Z,33.99
2023-01-03T18:39:09.602Z,33.99
2023-01-03T18:41:35.975Z,33.92
2023-01-03T18:44:02.351Z,34.08
2023-01-03T18:46:30.151Z,33.85
2023-01-03T18:48:55.075Z,34.04
2023-01-03T18:51:21.465Z,34.27
2023-01-03T18:53:47.812Z,34.24
2023-01-03T18:56:14.260Z,34.30
2023-01-03T18:58:43.514Z,34.25
2023-01-03T19:01:09.950Z,34.25
2023-01-03T19:03:36.489Z,34.25
2023-01-03T19:06:02.643Z,34.61
2023-01-03T19:08:28.991Z,34.61
2023-01-03T19:10:55.423Z,34.21
2023-01-03T19:13:21.712Z,34.46
2023-01-03T19:15:48.162Z,34.50
2023-01-03T19:18:14.491Z,34.58
2023-01-03T19:20:40.924Z,34.56
2023-01-03T19:23:07.245Z,34.45
2023-01-03T19:25:33.642Z,34.55
2023-01-03T19:27:59.977Z,34.56
2023-01-03T19:30:27.841Z,34.41
2023-01-03T19:32:52.722Z,34.41
2023-01-03T19:35:19.093Z,34.70
2023-01-03T19:37:45.481Z,35.02
2023-01-03T19:40:11.869Z,35.02
2023-01-03T19:42:38.197Z,34.71
2023-01-03T19:45:04.545Z,34.71
2023-01-03T19:47:30.920Z,34.79
2023-01-03T19:49:57.299Z,34.79
2023-01-03T19:52:23.725Z,34.79
2023-01-03T19:54:50.066Z,34.99
2023-01-03T19:57:16.467Z,34.99
2023-01-03T19:59:42.806Z,34.71
2023-01-03T20:02:25.873Z,34.84
2023-01-03T20:04:35.631Z,35.21
2023-01-03T20:07:01.972Z,35.21
2023-01-03T20:09:28.320Z,34.94
2023-01-03T20:11:54.687Z,34.91
2023-01-03T20:14:21.039Z,34.93
2023-01-03T20:16:47.462Z,35.26
2023-01-03T20:19:13.769Z,35.26
2023-01-03T20:21:40.175Z,34.98
2023-01-03T20:24:06.517Z,35.06
2023-01-03T20:26:34.142Z,35.34
2023-01-03T20:28:59.240Z,35.34
2023-01-03T20:31:25.742Z,35.26
2023-01-03T20:33:51.998Z,35.18
2023-01-03T20:36:23.198Z,35.40
2023-01-03T20:38:44.794Z,35.40
2023-01-03T20:41:11.235Z,35.16
2023-01-03T20:43:37.583Z,35.26
2023-01-03T20:46:04.022Z,35.07
2023-01-03T20:48:30.332Z,35.18
2023-01-03T20:50:56.726Z,34.93
2023-01-03T20:53:25.549Z,34.93
2023-01-03T20:55:51.952Z,35.54
2023-01-03T20:58:18.287Z,35.31
2023-01-03T21:00:44.771Z,35.31
2023-01-03T21:03:11.249Z,35.40
2023-01-03T21:05:37.553Z,35.39
2023-01-03T21:08:03.889Z,35.72
2023-01-03T21:10:30.293Z,35.72
2023-01-03T21:12:56.632Z,35.50
2023-01-03T21:15:23.065Z,35.53
2023-01-03T21:17:51.139Z,35.69
2023-01-03T21:20:15.816Z,35.66
2023-01-03T21:22:42.175Z,35.62
2023-01-03T21:25:08.568Z,35.62
2023-01-03T21:27:34.915Z,35.64
2023-01-03T21:30:01.357Z,35.69
2023-01-03T21:32:27.702Z,35.79
2023-01-03T21:34:54.103Z,35.78
2023-01-03T21:37:20.444Z,35.77
2023-01-03T21:39:46.861Z,35.82
2023-01-03T21:42:13.208Z,35.81
2023-01-03T21:44:39.614Z,35.88
2023-01-03T21:47:05.986Z,35.86
2023-01-03T21:49:32.380Z,35.84
2023-01-03T21:51:58.746Z,35.92
2023-01-03T21:54:25.137Z,35.89
2023-01-03T21:56:53.721Z,35.98
2023-01-03T21:59:20.108Z,36.02
2023-01-03T22:01:46.641Z,35.97
2023-01-03T22:04:12.922Z,35.95
2023-01-03T22:06:39.279Z,35.99
2023-01-03T22:09:05.676Z,36.02
2023-01-03T22:11:32.065Z,35.99
2023-01-03T22:13:58.449Z,36.09
2023-01-03T22:16:24.843Z,36.07
2023-01-03T22:18:51.220Z,36.06
2023-01-03T22:21:17.568Z,36.08
2023-01-03T22:23:44.007Z,36.09
2023-01-03T22:26:10.357Z,36.15
2023-01-03T22:28:36.743Z,36.15
2023-01-03T22:31:03.086Z,36.19
2023-01-03T22:33:29.513Z,36.27
2023-01-03T22:35:55.858Z,36.24
2023-01-03T22:38:22.257Z,36.36
2023-01-03T22:40:48.590Z,36.36
2023-01-03T22:43:14.990Z,36.28
2023-01-03T22:45:41.394Z,36.31
2023-01-03T22:48:07.733Z,36.33
2023-01-03T22:50:34.121Z,36.38
2023-01-03T22:53:00.518Z,36.44
2023-01-03T22:55:32.054Z,36.43
2023-01-03T22:57:53.292Z,36.39
2023-01-03T23:00:19.627Z,36.44
2023-01-03T23:02:46.086Z,36.45
2023-01-03T23:05:12.413Z,36.51
2023-01-03T23:07:38.816Z,36.53
2023-01-03T23:10:05.162Z,36.75
2023-01-03T23:12:31.553Z,36.76
2023-01-03T23:14:57.898Z,36.76
2023-01-03T23:17:24.291Z,36.74
2023-01-03T23:19:50.654Z,36.77
2023-01-03T23:22:17.093Z,36.81
2023-01-03T23:24:43.401Z,36.83
2023-01-03T23:27:09.785Z,36.87
2023-01-03T23:29:36.147Z,36.74
2023-01-03T23:32:02.572Z,36.79
2023-01-03T23:34:28.951Z,36.82
2023-01-03T23:36:55.334Z,36.84
2023-01-03T23:39:21.693Z,36.87
2023-01-03T23:41:48.090Z,36.90
2023-01-03T23:44:14.465Z,36.91
2023-01-03T23:46:40.847Z,36.89
2023-01-03T23:49:07.194Z,36.92
2023-01-03T23:51:33.596Z,36.92
2023-01-03T23:54:00.008Z,36.90
2023-01-03T23:56:26.335Z,36.95
2023-01-03T23:58:52.711Z,36.99
